createdAt,value
2022-11-11T00:04:13.014Z,9.27
2022-11-11T00:14:17.154Z,8.05
2022-11-11T00:24:41.171Z,14.18
2022-11-11T00:35:05.586Z,9.82
2022-11-11T00:45:09.457Z,8.20
2022-11-11T00:55:13.865Z,10.43
2022-11-11T01:05:16.768Z,17.85
2022-11-11T01:15:20.771Z,11.75
2022-11-11T01:25:23.510Z,12.93
2022-11-11T01:35:28.026Z,10.18
2022-11-11T01:45:49.699Z,12.50
2022-11-11T01:55:54.157Z,8.52
2022-11-11T02:05:57.779Z,10.55
2022-11-11T02:16:02.009Z,13.20
2022-11-11T02:26:07.858Z,14.05
2022-11-11T02:36:15.454Z,11.80
2022-11-11T02:46:19.494Z,16.08
2022-11-11T02:56:36.091Z,11.88
2022-11-11T03:06:40.204Z,13.43
2022-11-11T03:17:00.869Z,13.57
2022-11-11T03:27:04.960Z,19.42
2022-11-11T03:37:27.230Z,17.13
2022-11-11T03:47:31.311Z,14.45
2022-11-11T03:57:33.954Z,14.65
2022-11-11T04:07:55.318Z,21.55
2022-11-11T04:18:02.876Z,19.13
2022-11-11T04:28:25.486Z,18.40
2022-11-11T04:38:45.551Z,24.55
2022-11-11T04:48:49.568Z,21.33
2022-11-11T04:59:12.220Z,18.55
2022-11-11T05:09:16.219Z,23.23
2022-11-11T05:19:36.794Z,18.67
2022-11-11T05:29:40.778Z,22.02
2022-11-11T05:39:43.757Z,21.38
2022-11-11T05:49:47.802Z,18.98
2022-11-11T05:59:50.487Z,21.67
2022-11-11T06:10:14.484Z,23.00
2022-11-11T06:20:17.523Z,18.40
2022-11-11T06:30:46.077Z,19.67
2022-11-11T06:40:44.789Z,24.85
2022-11-11T06:50:49.049Z,20.02
2022-11-11T07:00:52.204Z,22.02
2022-11-11T07:10:56.223Z,20.60
2022-11-11T07:20:58.806Z,17.88
2022-11-11T07:31:02.856Z,18.13
2022-11-11T07:41:06.089Z,18.52
2022-11-11T07:51:10.089Z,13.65
2022-11-11T08:01:12.832Z,17.42
2022-11-11T08:11:38.456Z,17.95
2022-11-11T08:21:41.168Z,18.23
2022-11-11T08:31:45.228Z,17.52
2022-11-11T08:41:48.453Z,25.90
2022-11-11T08:51:52.518Z,18.88
2022-11-11T09:01:55.503Z,19.73
2022-11-11T09:11:59.547Z,21.83
2022-11-11T09:22:02.368Z,18.13
2022-11-11T09:32:06.934Z,16.33
2022-11-11T09:42:18.573Z,17.65
2022-11-11T09:52:27.073Z,14.82
2022-11-11T10:02:35.653Z,15.48
2022-11-11T10:12:45.073Z,24.00
2022-11-11T10:22:52.423Z,25.67
2022-11-11T10:32:59.691Z,19.73
2022-11-11T10:43:02.335Z,23.45
2022-11-11T10:53:15.038Z,19.17
2022-11-11T11:03:23.969Z,24.67
2022-11-11T11:13:35.440Z,26.00
2022-11-11T11:23:40.184Z,25.70
2022-11-11T11:33:55.784Z,23.85
2022-11-11T11:43:58.403Z,19.02
2022-11-11T11:54:23.765Z,12.38
2022-11-11T12:04:47.047Z,15.95
2022-11-11T12:15:05.270Z,14.23
2022-11-11T12:25:17.127Z,8.73
2022-11-11T12:35:39.592Z,9.50
2022-11-11T12:45:48.879Z,10.50
2022-11-11T12:56:02.692Z,9.52
2022-11-11T13:06:20.682Z,10.57
2022-11-11T13:16:26.054Z,9.25
2022-11-11T13:26:34.226Z,10.25
2022-11-11T13:36:48.520Z,11.48
2022-11-11T13:46:51.361Z,10.02
2022-11-11T13:57:04.135Z,7.80
2022-11-11T14:07:09.057Z,11.75
2022-11-11T14:17:16.983Z,11.77
2022-11-11T14:27:26.286Z,9.48
2022-11-11T14:37:52.884Z,12.10
2022-11-11T14:47:56.368Z,11.40
2022-11-11T14:58:06.910Z,9.23
2022-11-11T15:08:22.609Z,8.77
2022-11-11T15:18:48.420Z,8.98
2022-11-11T15:29:06.367Z,11.68
2022-11-11T15:39:14.779Z,12.45
2022-11-11T15:49:38.502Z,11.05
2022-11-11T15:59:42.481Z,17.65
2022-11-11T16:09:46.082Z,12.57
2022-11-11T16:19:51.031Z,11.02
2022-11-11T16:29:53.683Z,14.13
2022-11-11T16:39:58.046Z,16.17
2022-11-11T16:50:06.069Z,16.52
2022-11-11T17:00:14.960Z,22.35
2022-11-11T17:10:19.722Z,24.13
2022-11-11T17:20:23.702Z,19.30
2022-11-11T17:30:26.576Z,23.23
2022-11-11T17:40:31.403Z,22.98
2022-11-11T17:50:34.363Z,20.17
2022-11-11T18:00:38.356Z,9.25
2022-11-11T18:10:41.018Z,9.82
2022-11-11T18:20:45.122Z,12.93
2022-11-11T18:30:47.792Z,10.65
2022-11-11T18:40:51.780Z,17.88
2022-11-11T18:50:55.006Z,15.35
2022-11-11T19:01:09.852Z,15.25
2022-11-11T19:11:12.553Z,12.40
2022-11-11T19:21:18.540Z,12.55
2022-11-11T19:31:23.306Z,11.68
2022-11-11T19:41:28.689Z,12.88
2022-11-11T19:51:31.383Z,25.85
2022-11-11T20:01:36.974Z,17.40
2022-11-11T20:11:42.947Z,16.73
2022-11-11T20:21:46.980Z,15.68
2022-11-11T20:31:49.552Z,16.23
2022-11-11T20:41:53.515Z,12.70
2022-11-11T20:51:56.168Z,14.25
2022-11-11T21:02:00.294Z,20.30
2022-11-11T21:12:03.062Z,15.07
2022-11-11T21:22:10.143Z,20.27
2022-11-11T21:32:13.011Z,18.00
2022-11-11T21:42:17.246Z,18.23
2022-11-11T21:52:19.879Z,14.10
2022-11-11T22:02:23.943Z,18.15
2022-11-11T22:12:26.593Z,13.75
2022-11-11T22:22:30.561Z,16.30
2022-11-11T22:32:33.174Z,13.35
2022-11-11T22:42:37.190Z,11.80
2022-11-11T22:52:39.894Z,13.73
2022-11-11T23:02:43.888Z,15.32
2022-11-11T23:12:46.549Z,13.15
2022-11-11T23:22:50.611Z,17.98
2022-11-11T23:32:53.910Z,16.13
2022-11-11T23:42:58.114Z,14.32
2022-11-11T23:53:00.779Z,13.18
